Aplington, Iowa
Current Conditions -  °F | °C
As of 6:55 PM on Saturday 22 Nov 2014 (Local Time) from KIFA Reporting Station
Overcast Overcast  
Wind Chill: 44°   Ceiling: 600
Heat Index: 49°   Visibility: 7mi
Dew Point: 47°   Wind: 13mph
Humidity: 93%   Direction: 170°S
Pressure: 29.67"   Gusts: NA
Location:  42.58°N, 92.88°W
Report Text: KIFA 230055Z AUTO 17011KT 7SM OVC006 10/09 A2967 RMK AO2 T00950085
Loading
Personal Weather Stations






























Interactive Weather Map New forecast layout! Learn more

10-Day Weather Forecast

Advertisements
Track Severe Weather on mobile